sensor_id;sensor_type;location;lat;lon;timestamp;P1;durP1;ratioP1;P2;durP2;ratioP2
15982;SDS011;14442;50.196;8.096;2023-08-08T00:01:36;0.40;;;0.40;;
15982;SDS011;14442;50.196;8.096;2023-08-08T00:04:04;0.30;;;0.30;;
15982;SDS011;14442;50.196;8.096;2023-08-08T00:06:33;0.57;;;0.30;;
15982;SDS011;14442;50.196;8.096;2023-08-08T00:09:01;0.30;;;0.30;;
15982;SDS011;14442;50.196;8.096;2023-08-08T00:11:31;0.20;;;0.20;;
15982;SDS011;14442;50.196;8.096;2023-08-08T00:14:02;0.20;;;0.20;;
15982;SDS011;14442;50.196;8.096;2023-08-08T00:16:34;1.10;;;0.47;;
15982;SDS011;14442;50.196;8.096;2023-08-08T00:19:04;1.70;;;0.30;;
15982;SDS011;14442;50.196;8.096;2023-08-08T00:21:31;0.63;;;0.23;;
15982;SDS011;14442;50.196;8.096;2023-08-08T00:24:02;0.20;;;0.20;;
15982;SDS011;14442;50.196;8.096;2023-08-08T00:26:29;0.40;;;0.40;;
15982;SDS011;14442;50.196;8.096;2023-08-08T00:28:56;0.20;;;0.20;;
15982;SDS011;14442;50.196;8.096;2023-08-08T00:31:23;0.40;;;0.30;;
15982;SDS011;14442;50.196;8.096;2023-08-08T00:33:49;0.30;;;0.30;;
15982;SDS011;14442;50.196;8.096;2023-08-08T00:36:25;0.33;;;0.23;;
15982;SDS011;14442;50.196;8.096;2023-08-08T00:38:52;0.40;;;0.30;;
15982;SDS011;14442;50.196;8.096;2023-08-08T00:41:20;0.40;;;0.40;;
15982;SDS011;14442;50.196;8.096;2023-08-08T00:43:47;0.53;;;0.30;;
15982;SDS011;14442;50.196;8.096;2023-08-08T00:46:15;0.30;;;0.30;;
15982;SDS011;14442;50.196;8.096;2023-08-08T00:48:43;1.07;;;0.30;;
15982;SDS011;14442;50.196;8.096;2023-08-08T00:51:10;0.40;;;0.40;;
15982;SDS011;14442;50.196;8.096;2023-08-08T00:53:36;1.10;;;0.27;;
15982;SDS011;14442;50.196;8.096;2023-08-08T00:56:03;0.20;;;0.20;;
15982;SDS011;14442;50.196;8.096;2023-08-08T00:58:33;0.63;;;0.50;;
15982;SDS011;14442;50.196;8.096;2023-08-08T01:01:00;0.40;;;0.20;;
15982;SDS011;14442;50.196;8.096;2023-08-08T01:03:28;0.30;;;0.30;;
15982;SDS011;14442;50.196;8.096;2023-08-08T01:05:59;0.20;;;0.20;;
15982;SDS011;14442;50.196;8.096;2023-08-08T01:08:33;0.40;;;0.30;;
15982;SDS011;14442;50.196;8.096;2023-08-08T01:11:10;0.30;;;0.30;;
15982;SDS011;14442;50.196;8.096;2023-08-08T01:13:40;0.20;;;0.20;;
15982;SDS011;14442;50.196;8.096;2023-08-08T01:16:07;0.30;;;0.30;;
15982;SDS011;14442;50.196;8.096;2023-08-08T01:18:34;0.47;;;0.33;;
15982;SDS011;14442;50.196;8.096;2023-08-08T01:21:03;0.40;;;0.40;;
15982;SDS011;14442;50.196;8.096;2023-08-08T01:23:33;0.33;;;0.33;;
15982;SDS011;14442;50.196;8.096;2023-08-08T01:26:13;0.20;;;0.20;;
15982;SDS011;14442;50.196;8.096;2023-08-08T01:28:41;0.40;;;0.40;;
15982;SDS011;14442;50.196;8.096;2023-08-08T01:31:09;0.40;;;0.40;;
15982;SDS011;14442;50.196;8.096;2023-08-08T01:33:36;0.30;;;0.30;;
15982;SDS011;14442;50.196;8.096;2023-08-08T01:36:04;1.23;;;0.40;;
15982;SDS011;14442;50.196;8.096;2023-08-08T01:38:39;0.37;;;0.30;;
15982;SDS011;14442;50.196;8.096;2023-08-08T01:41:08;0.20;;;0.20;;
15982;SDS011;14442;50.196;8.096;2023-08-08T01:43:36;0.20;;;0.20;;
15982;SDS011;14442;50.196;8.096;2023-08-08T01:46:04;0.23;;;0.23;;
15982;SDS011;14442;50.196;8.096;2023-08-08T01:48:32;0.20;;;0.20;;
15982;SDS011;14442;50.196;8.096;2023-08-08T01:50:59;0.30;;;0.30;;
15982;SDS011;14442;50.196;8.096;2023-08-08T01:53:26;0.20;;;0.20;;
15982;SDS011;14442;50.196;8.096;2023-08-08T01:55:53;0.23;;;0.23;;
15982;SDS011;14442;50.196;8.096;2023-08-08T01:58:19;0.53;;;0.30;;
15982;SDS011;14442;50.196;8.096;2023-08-08T02:00:47;0.20;;;0.20;;
15982;SDS011;14442;50.196;8.096;2023-08-08T02:03:14;1.07;;;0.20;;
15982;SDS011;14442;50.196;8.096;2023-08-08T02:05:41;0.77;;;0.30;;
15982;SDS011;14442;50.196;8.096;2023-08-08T02:08:08;0.43;;;0.30;;
15982;SDS011;14442;50.196;8.096;2023-08-08T02:10:34;0.30;;;0.30;;
15982;SDS011;14442;50.196;8.096;2023-08-08T02:13:01;0.47;;;0.20;;
15982;SDS011;14442;50.196;8.096;2023-08-08T02:15:28;0.60;;;0.37;;
15982;SDS011;14442;50.196;8.096;2023-08-08T02:17:56;0.30;;;0.27;;
15982;SDS011;14442;50.196;8.096;2023-08-08T02:20:23;0.20;;;0.20;;
15982;SDS011;14442;50.196;8.096;2023-08-08T02:22:49;0.20;;;0.20;;
15982;SDS011;14442;50.196;8.096;2023-08-08T02:25:16;0.93;;;0.20;;
15982;SDS011;14442;50.196;8.096;2023-08-08T02:27:43;0.27;;;0.27;;
15982;SDS011;14442;50.196;8.096;2023-08-08T02:30:10;0.30;;;0.30;;
15982;SDS011;14442;50.196;8.096;2023-08-08T02:32:38;0.20;;;0.13;;
15982;SDS011;14442;50.196;8.096;2023-08-08T02:35:07;0.30;;;0.30;;
15982;SDS011;14442;50.196;8.096;2023-08-08T02:37:34;0.50;;;0.50;;
15982;SDS011;14442;50.196;8.096;2023-08-08T02:40:01;1.00;;;0.30;;
15982;SDS011;14442;50.196;8.096;2023-08-08T02:42:28;0.40;;;0.20;;
15982;SDS011;14442;50.196;8.096;2023-08-08T02:44:55;0.47;;;0.20;;
15982;SDS011;14442;50.196;8.096;2023-08-08T02:47:22;0.20;;;0.20;;
15982;SDS011;14442;50.196;8.096;2023-08-08T02:49:49;0.30;;;0.30;;
15982;SDS011;14442;50.196;8.096;2023-08-08T02:52:17;0.20;;;0.20;;
15982;SDS011;14442;50.196;8.096;2023-08-08T02:54:44;0.30;;;0.30;;
15982;SDS011;14442;50.196;8.096;2023-08-08T02:57:11;0.20;;;0.20;;
15982;SDS011;14442;50.196;8.096;2023-08-08T02:59:38;0.27;;;0.20;;
15982;SDS011;14442;50.196;8.096;2023-08-08T03:02:05;0.10;;;0.10;;
15982;SDS011;14442;50.196;8.096;2023-08-08T03:04:32;0.30;;;0.30;;
15982;SDS011;14442;50.196;8.096;2023-08-08T03:06:59;0.77;;;0.30;;
15982;SDS011;14442;50.196;8.096;2023-08-08T03:09:30;0.13;;;0.13;;
15982;SDS011;14442;50.196;8.096;2023-08-08T03:11:57;0.20;;;0.20;;
15982;SDS011;14442;50.196;8.096;2023-08-08T03:14:23;0.47;;;0.20;;
15982;SDS011;14442;50.196;8.096;2023-08-08T03:16:50;0.93;;;0.30;;
15982;SDS011;14442;50.196;8.096;2023-08-08T03:19:17;0.67;;;0.20;;
15982;SDS011;14442;50.196;8.096;2023-08-08T03:21:44;0.20;;;0.20;;
15982;SDS011;14442;50.196;8.096;2023-08-08T03:24:11;0.30;;;0.30;;
15982;SDS011;14442;50.196;8.096;2023-08-08T03:26:39;0.40;;;0.40;;
15982;SDS011;14442;50.196;8.096;2023-08-08T03:29:06;0.20;;;0.20;;
15982;SDS011;14442;50.196;8.096;2023-08-08T03:31:35;0.20;;;0.20;;
15982;SDS011;14442;50.196;8.096;2023-08-08T03:34:02;0.20;;;0.20;;
15982;SDS011;14442;50.196;8.096;2023-08-08T03:36:29;0.37;;;0.20;;
15982;SDS011;14442;50.196;8.096;2023-08-08T03:38:56;0.20;;;0.20;;
15982;SDS011;14442;50.196;8.096;2023-08-08T03:41:23;0.83;;;0.30;;
15982;SDS011;14442;50.196;8.096;2023-08-08T03:43:53;0.83;;;0.20;;
15982;SDS011;14442;50.196;8.096;2023-08-08T03:46:21;0.20;;;0.20;;
15982;SDS011;14442;50.196;8.096;2023-08-08T03:48:48;0.20;;;0.20;;
15982;SDS011;14442;50.196;8.096;2023-08-08T03:51:15;0.13;;;0.13;;
15982;SDS011;14442;50.196;8.096;2023-08-08T03:53:41;0.20;;;0.20;;
15982;SDS011;14442;50.196;8.096;2023-08-08T03:56:08;0.37;;;0.30;;
15982;SDS011;14442;50.196;8.096;2023-08-08T03:58:36;0.63;;;0.20;;
15982;SDS011;14442;50.196;8.096;2023-08-08T04:01:05;1.23;;;0.20;;
15982;SDS011;14442;50.196;8.096;2023-08-08T04:03:32;0.50;;;0.30;;
15982;SDS011;14442;50.196;8.096;2023-08-08T04:05:59;0.30;;;0.30;;
15982;SDS011;14442;50.196;8.096;2023-08-08T04:08:26;0.20;;;0.20;;
15982;SDS011;14442;50.196;8.096;2023-08-08T04:10:52;0.40;;;0.20;;
15982;SDS011;14442;50.196;8.096;2023-08-08T04:13:19;0.23;;;0.20;;
15982;SDS011;14442;50.196;8.096;2023-08-08T04:15:46;0.30;;;0.30;;
15982;SDS011;14442;50.196;8.096;2023-08-08T04:18:14;0.20;;;0.20;;
15982;SDS011;14442;50.196;8.096;2023-08-08T04:20:41;0.20;;;0.20;;
15982;SDS011;14442;50.196;8.096;2023-08-08T04:23:08;0.20;;;0.20;;
15982;SDS011;14442;50.196;8.096;2023-08-08T04:25:34;0.20;;;0.20;;
15982;SDS011;14442;50.196;8.096;2023-08-08T04:28:01;0.40;;;0.40;;
15982;SDS011;14442;50.196;8.096;2023-08-08T04:30:28;0.30;;;0.30;;
15982;SDS011;14442;50.196;8.096;2023-08-08T04:32:55;0.20;;;0.20;;
15982;SDS011;14442;50.196;8.096;2023-08-08T04:35:23;0.30;;;0.30;;
15982;SDS011;14442;50.196;8.096;2023-08-08T04:37:50;0.20;;;0.20;;
15982;SDS011;14442;50.196;8.096;2023-08-08T04:40:17;0.83;;;0.23;;
15982;SDS011;14442;50.196;8.096;2023-08-08T04:42:43;0.20;;;0.20;;
15982;SDS011;14442;50.196;8.096;2023-08-08T04:45:10;0.20;;;0.20;;
15982;SDS011;14442;50.196;8.096;2023-08-08T04:47:38;0.17;;;0.17;;
15982;SDS011;14442;50.196;8.096;2023-08-08T04:50:05;0.20;;;0.20;;
15982;SDS011;14442;50.196;8.096;2023-08-08T04:52:33;0.17;;;0.17;;
15982;SDS011;14442;50.196;8.096;2023-08-08T04:55:00;0.20;;;0.20;;
15982;SDS011;14442;50.196;8.096;2023-08-08T04:57:26;1.37;;;0.20;;
15982;SDS011;14442;50.196;8.096;2023-08-08T04:59:53;0.20;;;0.20;;
15982;SDS011;14442;50.196;8.096;2023-08-08T05:02:20;0.30;;;0.30;;
15982;SDS011;14442;50.196;8.096;2023-08-08T05:04:46;0.20;;;0.20;;
15982;SDS011;14442;50.196;8.096;2023-08-08T05:07:13;0.20;;;0.20;;
15982;SDS011;14442;50.196;8.096;2023-08-08T05:09:41;0.37;;;0.30;;
15982;SDS011;14442;50.196;8.096;2023-08-08T05:12:08;0.10;;;0.10;;
15982;SDS011;14442;50.196;8.096;2023-08-08T05:14:35;0.47;;;0.20;;
15982;SDS011;14442;50.196;8.096;2023-08-08T05:17:02;0.30;;;0.30;;
15982;SDS011;14442;50.196;8.096;2023-08-08T05:19:29;0.20;;;0.20;;
15982;SDS011;14442;50.196;8.096;2023-08-08T05:21:55;1.13;;;0.20;;
15982;SDS011;14442;50.196;8.096;2023-08-08T05:24:22;0.27;;;0.27;;
15982;SDS011;14442;50.196;8.096;2023-08-08T05:26:50;0.20;;;0.20;;
15982;SDS011;14442;50.196;8.096;2023-08-08T05:29:18;0.20;;;0.20;;
15982;SDS011;14442;50.196;8.096;2023-08-08T05:31:45;0.30;;;0.20;;
15982;SDS011;14442;50.196;8.096;2023-08-08T05:34:12;1.30;;;0.47;;
15982;SDS011;14442;50.196;8.096;2023-08-08T05:36:38;0.10;;;0.10;;
15982;SDS011;14442;50.196;8.096;2023-08-08T05:39:05;0.20;;;0.20;;
15982;SDS011;14442;50.196;8.096;2023-08-08T05:41:34;0.30;;;0.20;;
15982;SDS011;14442;50.196;8.096;2023-08-08T05:44:02;0.37;;;0.20;;
15982;SDS011;14442;50.196;8.096;2023-08-08T05:46:29;0.30;;;0.20;;
15982;SDS011;14442;50.196;8.096;2023-08-08T05:48:56;0.40;;;0.20;;
15982;SDS011;14442;50.196;8.096;2023-08-08T05:51:23;0.40;;;0.30;;
15982;SDS011;14442;50.196;8.096;2023-08-08T05:53:49;0.47;;;0.10;;
15982;SDS011;14442;50.196;8.096;2023-08-08T05:56:16;0.20;;;0.20;;
15982;SDS011;14442;50.196;8.096;2023-08-08T05:58:43;0.20;;;0.20;;
15982;SDS011;14442;50.196;8.096;2023-08-08T06:01:11;0.73;;;0.20;;
15982;SDS011;14442;50.196;8.096;2023-08-08T06:03:37;0.20;;;0.20;;
15982;SDS011;14442;50.196;8.096;2023-08-08T06:06:04;0.47;;;0.30;;
15982;SDS011;14442;50.196;8.096;2023-08-08T06:08:31;0.53;;;0.20;;
15982;SDS011;14442;50.196;8.096;2023-08-08T06:10:58;0.20;;;0.20;;
15982;SDS011;14442;50.196;8.096;2023-08-08T06:13:24;0.20;;;0.20;;
15982;SDS011;14442;50.196;8.096;2023-08-08T06:15:51;0.10;;;0.10;;
15982;SDS011;14442;50.196;8.096;2023-08-08T06:18:19;0.20;;;0.20;;
15982;SDS011;14442;50.196;8.096;2023-08-08T06:20:46;1.90;;;0.30;;
15982;SDS011;14442;50.196;8.096;2023-08-08T06:23:13;0.10;;;0.10;;
15982;SDS011;14442;50.196;8.096;2023-08-08T06:25:40;0.30;;;0.20;;
15982;SDS011;14442;50.196;8.096;2023-08-08T06:28:06;0.57;;;0.20;;
15982;SDS011;14442;50.196;8.096;2023-08-08T06:30:33;0.27;;;0.27;;
15982;SDS011;14442;50.196;8.096;2023-08-08T06:33:00;0.20;;;0.20;;
15982;SDS011;14442;50.196;8.096;2023-08-08T06:35:28;0.10;;;0.10;;
15982;SDS011;14442;50.196;8.096;2023-08-08T06:37:54;0.20;;;0.20;;
15982;SDS011;14442;50.196;8.096;2023-08-08T06:40:21;0.20;;;0.20;;
15982;SDS011;14442;50.196;8.096;2023-08-08T06:42:48;0.30;;;0.20;;
15982;SDS011;14442;50.196;8.096;2023-08-08T06:45:15;0.20;;;0.20;;
15982;SDS011;14442;50.196;8.096;2023-08-08T06:47:42;0.20;;;0.20;;
15982;SDS011;14442;50.196;8.096;2023-08-08T06:50:09;0.43;;;0.30;;
15982;SDS011;14442;50.196;8.096;2023-08-08T06:52:37;0.20;;;0.20;;
15982;SDS011;14442;50.196;8.096;2023-08-08T06:55:04;0.10;;;0.10;;
15982;SDS011;14442;50.196;8.096;2023-08-08T06:57:31;0.30;;;0.20;;
15982;SDS011;14442;50.196;8.096;2023-08-08T06:59:59;0.30;;;0.30;;
15982;SDS011;14442;50.196;8.096;2023-08-08T07:02:26;0.57;;;0.30;;
15982;SDS011;14442;50.196;8.096;2023-08-08T07:04:52;0.23;;;0.20;;
15982;SDS011;14442;50.196;8.096;2023-08-08T07:07:19;0.47;;;0.20;;
15982;SDS011;14442;50.196;8.096;2023-08-08T07:09:47;0.20;;;0.20;;
15982;SDS011;14442;50.196;8.096;2023-08-08T07:12:15;0.10;;;0.10;;
15982;SDS011;14442;50.196;8.096;2023-08-08T07:14:42;0.43;;;0.30;;
15982;SDS011;14442;50.196;8.096;2023-08-08T07:17:09;0.73;;;0.50;;
15982;SDS011;14442;50.196;8.096;2023-08-08T07:19:35;4.93;;;0.40;;
15982;SDS011;14442;50.196;8.096;2023-08-08T07:22:02;3.97;;;0.37;;
15982;SDS011;14442;50.196;8.096;2023-08-08T07:24:29;4.70;;;0.77;;
15982;SDS011;14442;50.196;8.096;2023-08-08T07:26:57;4.57;;;2.07;;
15982;SDS011;14442;50.196;8.096;2023-08-08T07:29:25;3.03;;;2.20;;
15982;SDS011;14442;50.196;8.096;2023-08-08T07:31:52;5.10;;;1.50;;
15982;SDS011;14442;50.196;8.096;2023-08-08T07:34:19;4.57;;;1.50;;
15982;SDS011;14442;50.196;8.096;2023-08-08T07:36:46;3.20;;;1.30;;
15982;SDS011;14442;50.196;8.096;2023-08-08T07:39:13;5.30;;;1.13;;
15982;SDS011;14442;50.196;8.096;2023-08-08T07:41:40;4.63;;;0.97;;
15982;SDS011;14442;50.196;8.096;2023-08-08T07:44:08;1.20;;;0.83;;
15982;SDS011;14442;50.196;8.096;2023-08-08T07:46:35;1.30;;;0.87;;
15982;SDS011;14442;50.196;8.096;2023-08-08T07:49:02;2.40;;;0.60;;
15982;SDS011;14442;50.196;8.096;2023-08-08T07:51:29;1.17;;;0.70;;
15982;SDS011;14442;50.196;8.096;2023-08-08T07:53:56;2.53;;;0.70;;
15982;SDS011;14442;50.196;8.096;2023-08-08T07:56:24;3.13;;;0.50;;
15982;SDS011;14442;50.196;8.096;2023-08-08T07:58:50;0.70;;;0.60;;
15982;SDS011;14442;50.196;8.096;2023-08-08T08:01:18;1.63;;;0.57;;
15982;SDS011;14442;50.196;8.096;2023-08-08T08:03:45;1.83;;;0.60;;
15982;SDS011;14442;50.196;8.096;2023-08-08T08:06:12;1.83;;;0.57;;
15982;SDS011;14442;50.196;8.096;2023-08-08T08:08:38;1.70;;;0.77;;
15982;SDS011;14442;50.196;8.096;2023-08-08T08:11:05;2.33;;;0.50;;
15982;SDS011;14442;50.196;8.096;2023-08-08T08:13:32;3.07;;;0.60;;
15982;SDS011;14442;50.196;8.096;2023-08-08T08:15:59;3.77;;;0.40;;
15982;SDS011;14442;50.196;8.096;2023-08-08T08:18:27;4.87;;;0.90;;
15982;SDS011;14442;50.196;8.096;2023-08-08T08:20:53;8.63;;;0.83;;
15982;SDS011;14442;50.196;8.096;2023-08-08T08:23:23;1.07;;;0.50;;
15982;SDS011;14442;50.196;8.096;2023-08-08T08:25:50;1.93;;;0.57;;
15982;SDS011;14442;50.196;8.096;2023-08-08T08:28:17;8.87;;;0.70;;
15982;SDS011;14442;50.196;8.096;2023-08-08T08:30:43;2.77;;;0.50;;
15982;SDS011;14442;50.196;8.096;2023-08-08T08:33:10;1.70;;;0.60;;
15982;SDS011;14442;50.196;8.096;2023-08-08T08:35:38;2.20;;;0.40;;
15982;SDS011;14442;50.196;8.096;2023-08-08T08:38:05;1.40;;;0.40;;
15982;SDS011;14442;50.196;8.096;2023-08-08T08:40:33;1.57;;;0.53;;
15982;SDS011;14442;50.196;8.096;2023-08-08T08:43:02;2.30;;;0.53;;
15982;SDS011;14442;50.196;8.096;2023-08-08T08:45:30;2.00;;;0.70;;
15982;SDS011;14442;50.196;8.096;2023-08-08T08:47:58;1.37;;;0.50;;
15982;SDS011;14442;50.196;8.096;2023-08-08T08:50:27;0.67;;;0.67;;
15982;SDS011;14442;50.196;8.096;2023-08-08T08:52:57;3.10;;;0.33;;
15982;SDS011;14442;50.196;8.096;2023-08-08T08:55:24;2.40;;;0.53;;
15982;SDS011;14442;50.196;8.096;2023-08-08T08:57:52;2.27;;;0.57;;
15982;SDS011;14442;50.196;8.096;2023-08-08T09:00:19;0.50;;;0.40;;
15982;SDS011;14442;50.196;8.096;2023-08-08T09:02:47;3.57;;;0.70;;
15982;SDS011;14442;50.196;8.096;2023-08-08T09:05:15;0.47;;;0.43;;
15982;SDS011;14442;50.196;8.096;2023-08-08T09:07:43;1.90;;;0.40;;
15982;SDS011;14442;50.196;8.096;2023-08-08T09:10:11;1.27;;;0.57;;
15982;SDS011;14442;50.196;8.096;2023-08-08T09:12:39;1.77;;;0.50;;
15982;SDS011;14442;50.196;8.096;2023-08-08T09:15:06;0.70;;;0.50;;
15982;SDS011;14442;50.196;8.096;2023-08-08T09:17:35;0.83;;;0.40;;
15982;SDS011;14442;50.196;8.096;2023-08-08T09:20:02;0.83;;;0.50;;
15982;SDS011;14442;50.196;8.096;2023-08-08T09:22:30;1.87;;;0.40;;
15982;SDS011;14442;50.196;8.096;2023-08-08T09:24:57;1.10;;;0.50;;
15982;SDS011;14442;50.196;8.096;2023-08-08T09:27:25;1.80;;;0.30;;
15982;SDS011;14442;50.196;8.096;2023-08-08T09:29:55;0.93;;;0.40;;
15982;SDS011;14442;50.196;8.096;2023-08-08T09:32:21;0.83;;;0.40;;
15982;SDS011;14442;50.196;8.096;2023-08-08T09:34:48;0.40;;;0.40;;
15982;SDS011;14442;50.196;8.096;2023-08-08T09:37:15;0.67;;;0.30;;
15982;SDS011;14442;50.196;8.096;2023-08-08T09:39:43;1.00;;;0.40;;
15982;SDS011;14442;50.196;8.096;2023-08-08T09:42:10;1.33;;;0.47;;
15982;SDS011;14442;50.196;8.096;2023-08-08T09:44:38;0.57;;;0.23;;
15982;SDS011;14442;50.196;8.096;2023-08-08T09:47:05;0.87;;;0.50;;
15982;SDS011;14442;50.196;8.096;2023-08-08T09:49:32;2.13;;;0.40;;
15982;SDS011;14442;50.196;8.096;2023-08-08T09:52:01;0.43;;;0.30;;
15982;SDS011;14442;50.196;8.096;2023-08-08T09:54:29;4.90;;;0.40;;
15982;SDS011;14442;50.196;8.096;2023-08-08T09:56:56;0.47;;;0.47;;
15982;SDS011;14442;50.196;8.096;2023-08-08T09:59:24;1.80;;;0.73;;
15982;SDS011;14442;50.196;8.096;2023-08-08T10:01:52;0.40;;;0.40;;
15982;SDS011;14442;50.196;8.096;2023-08-08T10:04:21;0.70;;;0.40;;
15982;SDS011;14442;50.196;8.096;2023-08-08T10:06:48;0.60;;;0.60;;
15982;SDS011;14442;50.196;8.096;2023-08-08T10:09:15;3.60;;;0.50;;
15982;SDS011;14442;50.196;8.096;2023-08-08T10:11:43;9.30;;;2.23;;
15982;SDS011;14442;50.196;8.096;2023-08-08T10:14:11;10.40;;;3.27;;
15982;SDS011;14442;50.196;8.096;2023-08-08T10:16:39;17.33;;;3.93;;
15982;SDS011;14442;50.196;8.096;2023-08-08T10:19:09;18.47;;;4.00;;
15982;SDS011;14442;50.196;8.096;2023-08-08T10:21:37;20.67;;;4.50;;
15982;SDS011;14442;50.196;8.096;2023-08-08T10:24:08;16.07;;;4.13;;
15982;SDS011;14442;50.196;8.096;2023-08-08T10:26:50;17.47;;;4.40;;
15982;SDS011;14442;50.196;8.096;2023-08-08T10:29:18;12.50;;;3.40;;
15982;SDS011;14442;50.196;8.096;2023-08-08T10:31:50;12.27;;;3.57;;
15982;SDS011;14442;50.196;8.096;2023-08-08T10:34:19;11.47;;;3.00;;
15982;SDS011;14442;50.196;8.096;2023-08-08T10:36:50;8.33;;;3.10;;
15982;SDS011;14442;50.196;8.096;2023-08-08T10:39:18;8.97;;;2.97;;
15982;SDS011;14442;50.196;8.096;2023-08-08T10:41:46;8.97;;;2.80;;
15982;SDS011;14442;50.196;8.096;2023-08-08T10:44:20;10.40;;;2.60;;
15982;SDS011;14442;50.196;8.096;2023-08-08T10:46:49;6.33;;;2.90;;
15982;SDS011;14442;50.196;8.096;2023-08-08T10:49:17;6.80;;;2.30;;
15982;SDS011;14442;50.196;8.096;2023-08-08T10:51:46;6.37;;;2.23;;
15982;SDS011;14442;50.196;8.096;2023-08-08T10:54:13;7.80;;;2.17;;
15982;SDS011;14442;50.196;8.096;2023-08-08T10:56:47;7.93;;;2.30;;
15982;SDS011;14442;50.196;8.096;2023-08-08T10:59:15;11.00;;;2.43;;
15982;SDS011;14442;50.196;8.096;2023-08-08T11:01:47;5.63;;;2.27;;
15982;SDS011;14442;50.196;8.096;2023-08-08T11:04:15;8.53;;;2.50;;
15982;SDS011;14442;50.196;8.096;2023-08-08T11:06:45;5.00;;;1.70;;
15982;SDS011;14442;50.196;8.096;2023-08-08T11:09:15;8.17;;;2.07;;
15982;SDS011;14442;50.196;8.096;2023-08-08T11:11:42;4.20;;;1.67;;
15982;SDS011;14442;50.196;8.096;2023-08-08T11:14:10;3.47;;;1.37;;
15982;SDS011;14442;50.196;8.096;2023-08-08T11:16:38;3.53;;;1.53;;
15982;SDS011;14442;50.196;8.096;2023-08-08T11:19:05;2.40;;;1.10;;
15982;SDS011;14442;50.196;8.096;2023-08-08T11:21:33;3.80;;;1.50;;
15982;SDS011;14442;50.196;8.096;2023-08-08T11:24:04;3.73;;;1.23;;
15982;SDS011;14442;50.196;8.096;2023-08-08T11:26:32;3.30;;;1.27;;
15982;SDS011;14442;50.196;8.096;2023-08-08T11:28:59;1.97;;;1.13;;
15982;SDS011;14442;50.196;8.096;2023-08-08T11:31:27;2.53;;;1.20;;
15982;SDS011;14442;50.196;8.096;2023-08-08T11:33:54;2.93;;;1.20;;
15982;SDS011;14442;50.196;8.096;2023-08-08T11:36:22;3.27;;;1.20;;
15982;SDS011;14442;50.196;8.096;2023-08-08T11:38:49;4.50;;;1.03;;
15982;SDS011;14442;50.196;8.096;2023-08-08T11:41:19;2.67;;;0.90;;
15982;SDS011;14442;50.196;8.096;2023-08-08T11:43:49;2.30;;;0.97;;
15982;SDS011;14442;50.196;8.096;2023-08-08T11:46:17;2.53;;;0.90;;
15982;SDS011;14442;50.196;8.096;2023-08-08T11:48:46;2.60;;;0.87;;
15982;SDS011;14442;50.196;8.096;2023-08-08T11:51:13;1.00;;;0.80;;
15982;SDS011;14442;50.196;8.096;2023-08-08T11:53:47;1.60;;;0.80;;
15982;SDS011;14442;50.196;8.096;2023-08-08T11:56:14;0.90;;;0.70;;
15982;SDS011;14442;50.196;8.096;2023-08-08T11:58:43;0.50;;;0.50;;
15982;SDS011;14442;50.196;8.096;2023-08-08T12:01:10;1.17;;;0.80;;
15982;SDS011;14442;50.196;8.096;2023-08-08T12:03:39;2.67;;;0.70;;
15982;SDS011;14442;50.196;8.096;2023-08-08T12:06:11;1.37;;;0.70;;
15982;SDS011;14442;50.196;8.096;2023-08-08T12:08:38;1.83;;;0.80;;
15982;SDS011;14442;50.196;8.096;2023-08-08T12:11:08;0.60;;;0.57;;
15982;SDS011;14442;50.196;8.096;2023-08-08T12:13:36;1.47;;;0.80;;
15982;SDS011;14442;50.196;8.096;2023-08-08T12:16:06;1.87;;;0.60;;
15982;SDS011;14442;50.196;8.096;2023-08-08T12:18:34;1.93;;;0.73;;
15982;SDS011;14442;50.196;8.096;2023-08-08T12:21:02;1.57;;;0.60;;
15982;SDS011;14442;50.196;8.096;2023-08-08T12:23:30;0.83;;;0.50;;
15982;SDS011;14442;50.196;8.096;2023-08-08T12:25:57;2.03;;;0.60;;
15982;SDS011;14442;50.196;8.096;2023-08-08T12:28:24;0.87;;;0.60;;
15982;SDS011;14442;50.196;8.096;2023-08-08T12:30:50;0.83;;;0.70;;
15982;SDS011;14442;50.196;8.096;2023-08-08T12:33:19;1.10;;;0.70;;
15982;SDS011;14442;50.196;8.096;2023-08-08T12:35:46;1.33;;;0.70;;
15982;SDS011;14442;50.196;8.096;2023-08-08T12:38:13;0.40;;;0.40;;
15982;SDS011;14442;50.196;8.096;2023-08-08T12:40:40;0.60;;;0.50;;
15982;SDS011;14442;50.196;8.096;2023-08-08T12:43:07;0.80;;;0.40;;
15982;SDS011;14442;50.196;8.096;2023-08-08T12:45:35;0.40;;;0.40;;
15982;SDS011;14442;50.196;8.096;2023-08-08T12:48:02;2.27;;;0.80;;
15982;SDS011;14442;50.196;8.096;2023-08-08T12:50:30;1.23;;;0.60;;
15982;SDS011;14442;50.196;8.096;2023-08-08T12:52:57;1.43;;;0.67;;
15982;SDS011;14442;50.196;8.096;2023-08-08T12:55:24;0.40;;;0.40;;
15982;SDS011;14442;50.196;8.096;2023-08-08T12:57:50;1.50;;;0.40;;
15982;SDS011;14442;50.196;8.096;2023-08-08T13:00:17;0.43;;;0.43;;
15982;SDS011;14442;50.196;8.096;2023-08-08T13:02:44;6.10;;;1.23;;
15982;SDS011;14442;50.196;8.096;2023-08-08T13:05:11;16.23;;;10.03;;
15982;SDS011;14442;50.196;8.096;2023-08-08T13:07:39;33.57;;;19.33;;
15982;SDS011;14442;50.196;8.096;2023-08-08T13:10:06;29.00;;;17.03;;
15982;SDS011;14442;50.196;8.096;2023-08-08T13:12:33;26.20;;;16.20;;
15982;SDS011;14442;50.196;8.096;2023-08-08T13:15:00;22.50;;;17.03;;
15982;SDS011;14442;50.196;8.096;2023-08-08T13:17:27;55.27;;;39.13;;
15982;SDS011;14442;50.196;8.096;2023-08-08T13:19:54;100.90;;;65.17;;
15982;SDS011;14442;50.196;8.096;2023-08-08T13:22:21;107.07;;;68.70;;
15982;SDS011;14442;50.196;8.096;2023-08-08T13:24:49;92.47;;;62.97;;
15982;SDS011;14442;50.196;8.096;2023-08-08T13:27:16;93.33;;;57.37;;
15982;SDS011;14442;50.196;8.096;2023-08-08T13:29:43;85.93;;;53.30;;
15982;SDS011;14442;50.196;8.096;2023-08-08T13:32:09;81.13;;;51.17;;
15982;SDS011;14442;50.196;8.096;2023-08-08T13:34:36;73.27;;;47.53;;
15982;SDS011;14442;50.196;8.096;2023-08-08T13:37:03;75.07;;;44.13;;
15982;SDS011;14442;50.196;8.096;2023-08-08T13:39:38;64.83;;;42.97;;
15982;SDS011;14442;50.196;8.096;2023-08-08T13:44:51;48.93;;;34.63;;
15982;SDS011;14442;50.196;8.096;2023-08-08T13:47:18;47.57;;;32.47;;
15982;SDS011;14442;50.196;8.096;2023-08-08T13:49:45;52.27;;;33.30;;
15982;SDS011;14442;50.196;8.096;2023-08-08T13:52:12;42.87;;;29.77;;
15982;SDS011;14442;50.196;8.096;2023-08-08T13:54:39;41.37;;;27.70;;
15982;SDS011;14442;50.196;8.096;2023-08-08T13:57:05;36.70;;;25.27;;
15982;SDS011;14442;50.196;8.096;2023-08-08T13:59:34;34.83;;;25.03;;
15982;SDS011;14442;50.196;8.096;2023-08-08T14:02:01;34.27;;;23.63;;
15982;SDS011;14442;50.196;8.096;2023-08-08T14:04:28;33.60;;;22.37;;
15982;SDS011;14442;50.196;8.096;2023-08-08T14:06:54;29.53;;;21.47;;
15982;SDS011;14442;50.196;8.096;2023-08-08T14:09:21;25.57;;;18.67;;
15982;SDS011;14442;50.196;8.096;2023-08-08T14:11:48;28.17;;;18.97;;
15982;SDS011;14442;50.196;8.096;2023-08-08T14:14:15;25.73;;;17.40;;
15982;SDS011;14442;50.196;8.096;2023-08-08T14:16:43;23.30;;;16.63;;
15982;SDS011;14442;50.196;8.096;2023-08-08T14:19:09;22.00;;;15.40;;
15982;SDS011;14442;50.196;8.096;2023-08-08T14:21:38;22.87;;;14.83;;
15982;SDS011;14442;50.196;8.096;2023-08-08T14:24:04;19.07;;;13.57;;
15982;SDS011;14442;50.196;8.096;2023-08-08T14:26:32;18.43;;;13.30;;
15982;SDS011;14442;50.196;8.096;2023-08-08T14:28:58;16.27;;;11.30;;
15982;SDS011;14442;50.196;8.096;2023-08-08T14:31:25;17.13;;;10.87;;
15982;SDS011;14442;50.196;8.096;2023-08-08T14:33:53;16.33;;;11.30;;
15982;SDS011;14442;50.196;8.096;2023-08-08T14:36:20;13.27;;;10.47;;
15982;SDS011;14442;50.196;8.096;2023-08-08T14:38:47;13.70;;;9.90;;
15982;SDS011;14442;50.196;8.096;2023-08-08T14:41:13;12.57;;;9.20;;
15982;SDS011;14442;50.196;8.096;2023-08-08T14:43:40;12.03;;;8.83;;
15982;SDS011;14442;50.196;8.096;2023-08-08T14:46:07;12.37;;;8.63;;
15982;SDS011;14442;50.196;8.096;2023-08-08T14:48:34;12.67;;;8.37;;